sensor_id;sensor_type;location;lat;lon;timestamp;P1;durP1;ratioP1;P2;durP2;ratioP2
26936;SDS011;14495;48.116;11.676;2022-09-30T00:01:34;6.97;;;5.47;;
26936;SDS011;14495;48.116;11.676;2022-09-30T00:04:01;8.68;;;5.90;;
26936;SDS011;14495;48.116;11.676;2022-09-30T00:06:27;10.38;;;6.45;;
26936;SDS011;14495;48.116;11.676;2022-09-30T00:08:54;10.93;;;6.28;;
26936;SDS011;14495;48.116;11.676;2022-09-30T00:11:21;13.70;;;6.00;;
26936;SDS011;14495;48.116;11.676;2022-09-30T00:13:49;14.10;;;7.53;;
26936;SDS011;14495;48.116;11.676;2022-09-30T00:16:16;8.93;;;6.70;;
26936;SDS011;14495;48.116;11.676;2022-09-30T00:18:43;9.27;;;6.50;;
26936;SDS011;14495;48.116;11.676;2022-09-30T00:21:09;14.88;;;8.02;;
26936;SDS011;14495;48.116;11.676;2022-09-30T00:23:36;9.90;;;6.85;;
26936;SDS011;14495;48.116;11.676;2022-09-30T00:26:04;12.18;;;7.90;;
26936;SDS011;14495;48.116;11.676;2022-09-30T00:28:32;12.52;;;6.90;;
26936;SDS011;14495;48.116;11.676;2022-09-30T00:30:59;10.05;;;6.97;;
26936;SDS011;14495;48.116;11.676;2022-09-30T00:33:32;10.93;;;6.80;;
26936;SDS011;14495;48.116;11.676;2022-09-30T00:35:59;11.50;;;7.28;;
26936;SDS011;14495;48.116;11.676;2022-09-30T00:38:24;11.43;;;7.05;;
26936;SDS011;14495;48.116;11.676;2022-09-30T00:40:50;13.88;;;6.43;;
26936;SDS011;14495;48.116;11.676;2022-09-30T00:43:17;9.95;;;6.38;;
26936;SDS011;14495;48.116;11.676;2022-09-30T00:45:55;11.82;;;6.60;;
26936;SDS011;14495;48.116;11.676;2022-09-30T00:48:30;9.60;;;5.88;;
26936;SDS011;14495;48.116;11.676;2022-09-30T00:50:59;11.40;;;6.38;;
26936;SDS011;14495;48.116;11.676;2022-09-30T00:53:27;9.50;;;6.65;;
26936;SDS011;14495;48.116;11.676;2022-09-30T00:58:30;9.02;;;6.13;;
26936;SDS011;14495;48.116;11.676;2022-09-30T01:01:02;13.60;;;7.53;;
26936;SDS011;14495;48.116;11.676;2022-09-30T01:03:35;10.88;;;6.65;;
26936;SDS011;14495;48.116;11.676;2022-09-30T01:06:05;11.68;;;6.97;;
26936;SDS011;14495;48.116;11.676;2022-09-30T01:08:31;13.27;;;7.35;;
26936;SDS011;14495;48.116;11.676;2022-09-30T01:10:59;11.85;;;7.50;;
26936;SDS011;14495;48.116;11.676;2022-09-30T01:13:25;10.63;;;7.03;;
26936;SDS011;14495;48.116;11.676;2022-09-30T01:18:43;12.30;;;7.05;;
26936;SDS011;14495;48.116;11.676;2022-09-30T01:24:23;10.27;;;6.22;;
26936;SDS011;14495;48.116;11.676;2022-09-30T01:27:15;11.07;;;6.15;;
26936;SDS011;14495;48.116;11.676;2022-09-30T01:45:48;8.98;;;6.25;;
26936;SDS011;14495;48.116;11.676;2022-09-30T01:48:39;9.95;;;6.25;;
26936;SDS011;14495;48.116;11.676;2022-09-30T01:51:20;9.98;;;6.03;;
26936;SDS011;14495;48.116;11.676;2022-09-30T01:53:56;10.23;;;6.03;;
26936;SDS011;14495;48.116;11.676;2022-09-30T01:56:34;9.60;;;5.38;;
26936;SDS011;14495;48.116;11.676;2022-09-30T01:59:10;7.47;;;4.88;;
26936;SDS011;14495;48.116;11.676;2022-09-30T02:01:50;8.98;;;5.28;;
26936;SDS011;14495;48.116;11.676;2022-09-30T02:04:23;7.38;;;4.30;;
26936;SDS011;14495;48.116;11.676;2022-09-30T02:06:55;9.32;;;4.70;;
26936;SDS011;14495;48.116;11.676;2022-09-30T02:09:29;9.37;;;5.30;;
26936;SDS011;14495;48.116;11.676;2022-09-30T02:12:02;9.98;;;5.20;;
26936;SDS011;14495;48.116;11.676;2022-09-30T02:14:32;7.38;;;4.75;;
26936;SDS011;14495;48.116;11.676;2022-09-30T02:17:22;6.80;;;4.30;;
26936;SDS011;14495;48.116;11.676;2022-09-30T02:19:58;7.63;;;5.00;;
26936;SDS011;14495;48.116;11.676;2022-09-30T02:22:31;6.43;;;4.30;;
26936;SDS011;14495;48.116;11.676;2022-09-30T02:25:07;6.50;;;4.43;;
26936;SDS011;14495;48.116;11.676;2022-09-30T02:27:40;5.88;;;4.05;;
26936;SDS011;14495;48.116;11.676;2022-09-30T02:30:12;8.02;;;4.72;;
26936;SDS011;14495;48.116;11.676;2022-09-30T02:32:48;7.03;;;4.18;;
26936;SDS011;14495;48.116;11.676;2022-09-30T02:35:21;7.22;;;4.65;;
26936;SDS011;14495;48.116;11.676;2022-09-30T02:37:58;7.05;;;4.60;;
26936;SDS011;14495;48.116;11.676;2022-09-30T02:40:32;8.13;;;5.00;;
26936;SDS011;14495;48.116;11.676;2022-09-30T02:43:03;6.93;;;4.22;;
26936;SDS011;14495;48.116;11.676;2022-09-30T02:45:30;8.82;;;5.10;;
26936;SDS011;14495;48.116;11.676;2022-09-30T02:50:53;8.63;;;4.40;;
26936;SDS011;14495;48.116;11.676;2022-09-30T02:53:39;9.05;;;5.03;;
26936;SDS011;14495;48.116;11.676;2022-09-30T02:59:02;13.20;;;5.63;;
26936;SDS011;14495;48.116;11.676;2022-09-30T03:01:28;7.15;;;5.13;;
26936;SDS011;14495;48.116;11.676;2022-09-30T03:06:31;8.98;;;4.85;;
26936;SDS011;14495;48.116;11.676;2022-09-30T03:08:58;9.40;;;5.63;;
26936;SDS011;14495;48.116;11.676;2022-09-30T03:11:24;8.50;;;5.13;;
26936;SDS011;14495;48.116;11.676;2022-09-30T03:30:01;7.88;;;4.70;;
26936;SDS011;14495;48.116;11.676;2022-09-30T03:35:26;7.70;;;4.97;;
26936;SDS011;14495;48.116;11.676;2022-09-30T03:43:28;8.85;;;5.28;;
26936;SDS011;14495;48.116;11.676;2022-09-30T03:46:05;9.38;;;4.68;;
26936;SDS011;14495;48.116;11.676;2022-09-30T03:48:32;9.77;;;4.80;;
26936;SDS011;14495;48.116;11.676;2022-09-30T03:51:01;8.90;;;5.13;;
26936;SDS011;14495;48.116;11.676;2022-09-30T03:53:28;7.82;;;4.72;;
26936;SDS011;14495;48.116;11.676;2022-09-30T03:55:53;8.75;;;5.30;;
26936;SDS011;14495;48.116;11.676;2022-09-30T03:58:20;9.02;;;5.10;;
26936;SDS011;14495;48.116;11.676;2022-09-30T04:00:51;8.48;;;5.75;;
26936;SDS011;14495;48.116;11.676;2022-09-30T04:03:18;10.95;;;5.88;;
26936;SDS011;14495;48.116;11.676;2022-09-30T04:05:46;10.15;;;5.43;;
26936;SDS011;14495;48.116;11.676;2022-09-30T04:08:12;13.27;;;5.93;;
26936;SDS011;14495;48.116;11.676;2022-09-30T04:10:40;9.93;;;5.63;;
26936;SDS011;14495;48.116;11.676;2022-09-30T04:13:07;10.10;;;5.25;;
26936;SDS011;14495;48.116;11.676;2022-09-30T04:15:34;10.35;;;5.97;;
26936;SDS011;14495;48.116;11.676;2022-09-30T04:18:00;10.15;;;5.90;;
26936;SDS011;14495;48.116;11.676;2022-09-30T04:20:25;10.20;;;6.32;;
26936;SDS011;14495;48.116;11.676;2022-09-30T04:22:51;10.52;;;5.90;;
26936;SDS011;14495;48.116;11.676;2022-09-30T04:25:16;10.80;;;6.13;;
26936;SDS011;14495;48.116;11.676;2022-09-30T04:27:41;9.52;;;5.95;;
26936;SDS011;14495;48.116;11.676;2022-09-30T04:30:07;11.23;;;5.65;;
26936;SDS011;14495;48.116;11.676;2022-09-30T04:32:32;9.43;;;5.10;;
26936;SDS011;14495;48.116;11.676;2022-09-30T04:34:57;11.73;;;5.57;;
26936;SDS011;14495;48.116;11.676;2022-09-30T04:37:23;9.07;;;5.43;;
26936;SDS011;14495;48.116;11.676;2022-09-30T04:39:48;10.57;;;5.90;;
26936;SDS011;14495;48.116;11.676;2022-09-30T04:42:14;11.23;;;6.60;;
26936;SDS011;14495;48.116;11.676;2022-09-30T04:44:40;11.77;;;6.43;;
26936;SDS011;14495;48.116;11.676;2022-09-30T04:47:05;12.35;;;6.22;;
26936;SDS011;14495;48.116;11.676;2022-09-30T04:49:31;8.20;;;5.65;;
26936;SDS011;14495;48.116;11.676;2022-09-30T04:51:56;10.63;;;5.90;;
26936;SDS011;14495;48.116;11.676;2022-09-30T04:54:21;13.48;;;6.78;;
26936;SDS011;14495;48.116;11.676;2022-09-30T04:56:47;11.45;;;6.72;;
26936;SDS011;14495;48.116;11.676;2022-09-30T04:59:12;28.27;;;12.95;;
26936;SDS011;14495;48.116;11.676;2022-09-30T05:01:37;18.88;;;11.07;;
26936;SDS011;14495;48.116;11.676;2022-09-30T05:04:04;14.90;;;8.70;;
26936;SDS011;14495;48.116;11.676;2022-09-30T05:06:29;16.83;;;8.82;;
26936;SDS011;14495;48.116;11.676;2022-09-30T05:08:55;17.00;;;8.77;;
26936;SDS011;14495;48.116;11.676;2022-09-30T05:11:20;16.42;;;6.97;;
26936;SDS011;14495;48.116;11.676;2022-09-30T05:13:46;15.15;;;7.55;;
26936;SDS011;14495;48.116;11.676;2022-09-30T05:16:12;16.35;;;7.47;;
26936;SDS011;14495;48.116;11.676;2022-09-30T05:18:39;14.23;;;6.18;;
26936;SDS011;14495;48.116;11.676;2022-09-30T05:21:06;13.02;;;7.07;;
26936;SDS011;14495;48.116;11.676;2022-09-30T05:23:32;11.95;;;6.45;;
26936;SDS011;14495;48.116;11.676;2022-09-30T05:25:58;12.88;;;6.65;;
26936;SDS011;14495;48.116;11.676;2022-09-30T05:28:25;9.88;;;6.13;;
26936;SDS011;14495;48.116;11.676;2022-09-30T05:30:57;12.48;;;7.30;;
26936;SDS011;14495;48.116;11.676;2022-09-30T05:33:24;12.55;;;6.93;;
26936;SDS011;14495;48.116;11.676;2022-09-30T05:35:50;11.13;;;6.10;;
26936;SDS011;14495;48.116;11.676;2022-09-30T05:38:16;11.25;;;6.32;;
26936;SDS011;14495;48.116;11.676;2022-09-30T05:40:41;10.00;;;6.60;;
26936;SDS011;14495;48.116;11.676;2022-09-30T05:43:06;11.30;;;6.30;;
26936;SDS011;14495;48.116;11.676;2022-09-30T05:45:32;12.50;;;6.78;;
26936;SDS011;14495;48.116;11.676;2022-09-30T05:47:58;12.02;;;7.00;;
26936;SDS011;14495;48.116;11.676;2022-09-30T05:50:24;13.70;;;7.60;;
26936;SDS011;14495;48.116;11.676;2022-09-30T05:52:49;11.63;;;6.90;;
26936;SDS011;14495;48.116;11.676;2022-09-30T05:55:16;13.27;;;7.65;;
26936;SDS011;14495;48.116;11.676;2022-09-30T05:57:43;10.48;;;7.00;;
26936;SDS011;14495;48.116;11.676;2022-09-30T06:00:12;12.95;;;6.72;;
26936;SDS011;14495;48.116;11.676;2022-09-30T06:02:38;11.15;;;6.80;;
26936;SDS011;14495;48.116;11.676;2022-09-30T06:05:04;12.60;;;7.50;;
26936;SDS011;14495;48.116;11.676;2022-09-30T06:07:31;12.48;;;7.30;;
26936;SDS011;14495;48.116;11.676;2022-09-30T06:09:58;11.52;;;6.75;;
26936;SDS011;14495;48.116;11.676;2022-09-30T06:12:23;12.82;;;6.75;;
26936;SDS011;14495;48.116;11.676;2022-09-30T06:14:51;14.00;;;7.53;;
26936;SDS011;14495;48.116;11.676;2022-09-30T06:17:16;14.23;;;7.00;;
26936;SDS011;14495;48.116;11.676;2022-09-30T06:19:43;13.15;;;6.65;;
26936;SDS011;14495;48.116;11.676;2022-09-30T06:22:08;17.15;;;8.07;;
26936;SDS011;14495;48.116;11.676;2022-09-30T06:24:34;13.27;;;7.10;;
26936;SDS011;14495;48.116;11.676;2022-09-30T06:26:59;12.30;;;7.18;;
26936;SDS011;14495;48.116;11.676;2022-09-30T06:29:24;17.17;;;6.97;;
26936;SDS011;14495;48.116;11.676;2022-09-30T06:31:49;13.40;;;7.05;;
26936;SDS011;14495;48.116;11.676;2022-09-30T06:34:15;13.50;;;7.50;;
26936;SDS011;14495;48.116;11.676;2022-09-30T06:36:40;13.13;;;7.20;;
26936;SDS011;14495;48.116;11.676;2022-09-30T06:39:05;11.77;;;7.28;;
26936;SDS011;14495;48.116;11.676;2022-09-30T06:41:31;13.60;;;6.75;;
26936;SDS011;14495;48.116;11.676;2022-09-30T06:43:56;12.57;;;6.15;;
26936;SDS011;14495;48.116;11.676;2022-09-30T06:46:22;12.05;;;6.85;;
26936;SDS011;14495;48.116;11.676;2022-09-30T06:48:52;10.48;;;5.90;;
26936;SDS011;14495;48.116;11.676;2022-09-30T06:51:19;12.30;;;6.38;;
26936;SDS011;14495;48.116;11.676;2022-09-30T06:53:44;11.88;;;6.40;;
26936;SDS011;14495;48.116;11.676;2022-09-30T06:56:10;9.32;;;5.93;;
26936;SDS011;14495;48.116;11.676;2022-09-30T06:58:35;13.68;;;6.15;;
26936;SDS011;14495;48.116;11.676;2022-09-30T07:01:02;13.82;;;6.65;;
26936;SDS011;14495;48.116;11.676;2022-09-30T07:03:32;7.88;;;5.28;;
26936;SDS011;14495;48.116;11.676;2022-09-30T07:06:00;26.40;;;11.27;;
26936;SDS011;14495;48.116;11.676;2022-09-30T07:08:27;30.73;;;12.43;;
26936;SDS011;14495;48.116;11.676;2022-09-30T07:10:59;15.57;;;7.35;;
26936;SDS011;14495;48.116;11.676;2022-09-30T07:13:28;16.40;;;8.30;;
26936;SDS011;14495;48.116;11.676;2022-09-30T07:15:53;9.77;;;6.22;;
26936;SDS011;14495;48.116;11.676;2022-09-30T07:18:20;9.77;;;5.05;;
26936;SDS011;14495;48.116;11.676;2022-09-30T07:20:48;6.93;;;4.95;;
26936;SDS011;14495;48.116;11.676;2022-09-30T07:23:16;15.02;;;7.57;;
26936;SDS011;14495;48.116;11.676;2022-09-30T07:25:55;11.73;;;6.43;;
26936;SDS011;14495;48.116;11.676;2022-09-30T07:28:23;18.45;;;8.75;;
26936;SDS011;14495;48.116;11.676;2022-09-30T07:30:55;8.52;;;5.40;;
26936;SDS011;14495;48.116;11.676;2022-09-30T07:33:23;9.88;;;4.93;;
26936;SDS011;14495;48.116;11.676;2022-09-30T07:35:55;6.82;;;4.20;;
26936;SDS011;14495;48.116;11.676;2022-09-30T07:38:22;7.75;;;4.10;;
26936;SDS011;14495;48.116;11.676;2022-09-30T07:40:50;7.53;;;4.35;;
26936;SDS011;14495;48.116;11.676;2022-09-30T07:43:24;8.02;;;4.88;;
26936;SDS011;14495;48.116;11.676;2022-09-30T07:45:51;7.82;;;4.53;;
26936;SDS011;14495;48.116;11.676;2022-09-30T07:48:19;5.93;;;4.05;;
26936;SDS011;14495;48.116;11.676;2022-09-30T07:51:08;6.70;;;3.75;;
26936;SDS011;14495;48.116;11.676;2022-09-30T07:53:39;6.40;;;3.88;;
26936;SDS011;14495;48.116;11.676;2022-09-30T07:56:05;2.35;;;2.03;;
26936;SDS011;14495;48.116;11.676;2022-09-30T07:58:31;8.15;;;2.60;;
26936;SDS011;14495;48.116;11.676;2022-09-30T08:00:57;3.13;;;2.10;;
26936;SDS011;14495;48.116;11.676;2022-09-30T08:03:22;3.90;;;2.20;;
26936;SDS011;14495;48.116;11.676;2022-09-30T08:05:47;4.43;;;2.67;;
26936;SDS011;14495;48.116;11.676;2022-09-30T08:08:13;3.25;;;1.90;;
26936;SDS011;14495;48.116;11.676;2022-09-30T08:10:40;2.95;;;1.85;;
26936;SDS011;14495;48.116;11.676;2022-09-30T08:13:05;3.47;;;1.98;;
26936;SDS011;14495;48.116;11.676;2022-09-30T08:15:31;2.83;;;2.00;;
26936;SDS011;14495;48.116;11.676;2022-09-30T08:17:57;2.60;;;1.95;;
26936;SDS011;14495;48.116;11.676;2022-09-30T08:20:22;2.47;;;2.03;;
26936;SDS011;14495;48.116;11.676;2022-09-30T08:22:51;3.08;;;1.95;;
26936;SDS011;14495;48.116;11.676;2022-09-30T08:25:17;2.70;;;1.77;;
26936;SDS011;14495;48.116;11.676;2022-09-30T08:27:42;1.88;;;1.33;;
26936;SDS011;14495;48.116;11.676;2022-09-30T08:30:08;3.17;;;1.75;;
26936;SDS011;14495;48.116;11.676;2022-09-30T08:32:33;2.75;;;1.38;;
26936;SDS011;14495;48.116;11.676;2022-09-30T08:34:59;1.70;;;0.90;;
26936;SDS011;14495;48.116;11.676;2022-09-30T08:37:24;1.10;;;1.00;;
26936;SDS011;14495;48.116;11.676;2022-09-30T08:39:49;1.58;;;1.10;;
26936;SDS011;14495;48.116;11.676;2022-09-30T08:51:01;2.35;;;0.82;;
26936;SDS011;14495;48.116;11.676;2022-09-30T08:53:35;1.58;;;0.90;;
26936;SDS011;14495;48.116;11.676;2022-09-30T08:56:04;0.82;;;0.77;;
26936;SDS011;14495;48.116;11.676;2022-09-30T08:58:32;0.90;;;0.80;;
26936;SDS011;14495;48.116;11.676;2022-09-30T09:01:13;1.13;;;1.00;;
26936;SDS011;14495;48.116;11.676;2022-09-30T09:03:44;2.88;;;0.93;;
26936;SDS011;14495;48.116;11.676;2022-09-30T09:08:50;6.25;;;1.27;;
26936;SDS011;14495;48.116;11.676;2022-09-30T09:14:27;1.85;;;1.25;;
26936;SDS011;14495;48.116;11.676;2022-09-30T09:19:58;1.40;;;1.05;;
26936;SDS011;14495;48.116;11.676;2022-09-30T09:22:32;2.05;;;1.40;;
26936;SDS011;14495;48.116;11.676;2022-09-30T09:24:58;2.22;;;1.45;;
26936;SDS011;14495;48.116;11.676;2022-09-30T09:27:33;2.33;;;1.33;;
26936;SDS011;14495;48.116;11.676;2022-09-30T09:30:17;1.70;;;1.30;;
26936;SDS011;14495;48.116;11.676;2022-09-30T09:32:49;2.80;;;1.58;;
26936;SDS011;14495;48.116;11.676;2022-09-30T09:35:24;1.92;;;1.02;;
26936;SDS011;14495;48.116;11.676;2022-09-30T09:38:00;1.60;;;1.10;;
26936;SDS011;14495;48.116;11.676;2022-09-30T09:43:43;2.70;;;1.20;;
26936;SDS011;14495;48.116;11.676;2022-09-30T09:57:10;1.42;;;1.00;;
26936;SDS011;14495;48.116;11.676;2022-09-30T10:05:26;1.58;;;1.00;;
26936;SDS011;14495;48.116;11.676;2022-09-30T10:08:07;1.10;;;0.70;;
26936;SDS011;14495;48.116;11.676;2022-09-30T10:10:51;0.82;;;0.68;;
26936;SDS011;14495;48.116;11.676;2022-09-30T10:13:20;1.40;;;0.85;;
26936;SDS011;14495;48.116;11.676;2022-09-30T10:15:52;1.02;;;0.80;;
26936;SDS011;14495;48.116;11.676;2022-09-30T10:18:24;2.25;;;0.90;;
26936;SDS011;14495;48.116;11.676;2022-09-30T10:20:53;1.50;;;0.93;;
26936;SDS011;14495;48.116;11.676;2022-09-30T10:23:25;1.83;;;0.90;;
26936;SDS011;14495;48.116;11.676;2022-09-30T10:25:56;2.08;;;1.00;;
26936;SDS011;14495;48.116;11.676;2022-09-30T10:28:53;0.88;;;0.77;;
26936;SDS011;14495;48.116;11.676;2022-09-30T10:31:39;1.70;;;0.88;;
26936;SDS011;14495;48.116;11.676;2022-09-30T10:36:57;1.08;;;0.70;;
26936;SDS011;14495;48.116;11.676;2022-09-30T10:39:27;0.70;;;0.60;;
26936;SDS011;14495;48.116;11.676;2022-09-30T10:44:43;1.25;;;0.70;;
26936;SDS011;14495;48.116;11.676;2022-09-30T10:47:21;0.93;;;0.70;;
26936;SDS011;14495;48.116;11.676;2022-09-30T10:52:33;0.98;;;0.70;;
26936;SDS011;14495;48.116;11.676;2022-09-30T10:55:25;0.85;;;0.57;;
26936;SDS011;14495;48.116;11.676;2022-09-30T10:58:00;0.77;;;0.70;;
26936;SDS011;14495;48.116;11.676;2022-09-30T11:00:46;1.92;;;0.90;;
26936;SDS011;14495;48.116;11.676;2022-09-30T11:03:22;1.33;;;0.70;;
26936;SDS011;14495;48.116;11.676;2022-09-30T11:05:52;1.13;;;0.80;;
26936;SDS011;14495;48.116;11.676;2022-09-30T11:11:20;1.10;;;0.82;;
26936;SDS011;14495;48.116;11.676;2022-09-30T11:13:55;0.93;;;0.82;;
26936;SDS011;14495;48.116;11.676;2022-09-30T11:19:10;1.00;;;0.80;;
26936;SDS011;14495;48.116;11.676;2022-09-30T11:22:08;1.10;;;0.80;;
26936;SDS011;14495;48.116;11.676;2022-09-30T11:25:00;0.95;;;0.85;;
26936;SDS011;14495;48.116;11.676;2022-09-30T11:30:08;1.33;;;0.98;;
26936;SDS011;14495;48.116;11.676;2022-09-30T11:32:37;2.15;;;1.30;;
26936;SDS011;14495;48.116;11.676;2022-09-30T11:46:04;1.13;;;0.80;;
26936;SDS011;14495;48.116;11.676;2022-09-30T11:51:37;1.95;;;1.10;;
26936;SDS011;14495;48.116;11.676;2022-09-30T11:54:22;2.00;;;0.73;;
26936;SDS011;14495;48.116;11.676;2022-09-30T11:57:20;1.38;;;0.95;;
26936;SDS011;14495;48.116;11.676;2022-09-30T11:59:55;0.95;;;0.73;;
26936;SDS011;14495;48.116;11.676;2022-09-30T12:03:34;1.20;;;0.70;;
26936;SDS011;14495;48.116;11.676;2022-09-30T12:05:44;1.08;;;0.88;;
26936;SDS011;14495;48.116;11.676;2022-09-30T12:08:17;1.00;;;0.60;;
26936;SDS011;14495;48.116;11.676;2022-09-30T12:13:32;0.93;;;0.88;;
26936;SDS011;14495;48.116;11.676;2022-09-30T12:16:02;1.30;;;0.82;;
26936;SDS011;14495;48.116;11.676;2022-09-30T12:18:35;1.25;;;0.70;;
26936;SDS011;14495;48.116;11.676;2022-09-30T12:26:18;1.27;;;0.77;;
26936;SDS011;14495;48.116;11.676;2022-09-30T12:37:13;1.60;;;0.70;;
26936;SDS011;14495;48.116;11.676;2022-09-30T12:46:01;0.57;;;0.57;;
26936;SDS011;14495;48.116;11.676;2022-09-30T12:48:38;1.52;;;0.80;;
26936;SDS011;14495;48.116;11.676;2022-09-30T12:51:09;1.13;;;0.70;;
26936;SDS011;14495;48.116;11.676;2022-09-30T12:53:45;3.15;;;1.10;;
26936;SDS011;14495;48.116;11.676;2022-09-30T12:56:15;2.40;;;0.90;;
26936;SDS011;14495;48.116;11.676;2022-09-30T12:58:48;1.23;;;0.80;;
26936;SDS011;14495;48.116;11.676;2022-09-30T13:01:16;1.20;;;0.80;;
26936;SDS011;14495;48.116;11.676;2022-09-30T13:06:16;0.80;;;0.70;;
26936;SDS011;14495;48.116;11.676;2022-09-30T13:08:46;5.13;;;0.88;;
26936;SDS011;14495;48.116;11.676;2022-09-30T13:11:43;1.05;;;0.90;;
26936;SDS011;14495;48.116;11.676;2022-09-30T13:19:35;0.70;;;0.70;;
26936;SDS011;14495;48.116;11.676;2022-09-30T13:27:40;0.90;;;0.70;;
26936;SDS011;14495;48.116;11.676;2022-09-30T13:35:35;1.88;;;1.10;;
26936;SDS011;14495;48.116;11.676;2022-09-30T13:40:53;1.52;;;0.90;;
26936;SDS011;14495;48.116;11.676;2022-09-30T13:43:32;1.35;;;0.95;;
26936;SDS011;14495;48.116;11.676;2022-09-30T13:46:05;0.82;;;0.80;;
26936;SDS011;14495;48.116;11.676;2022-09-30T13:48:35;1.05;;;0.90;;
26936;SDS011;14495;48.116;11.676;2022-09-30T13:51:07;1.65;;;1.05;;
26936;SDS011;14495;48.116;11.676;2022-09-30T13:53:39;1.40;;;0.90;;
26936;SDS011;14495;48.116;11.676;2022-09-30T13:58:56;1.20;;;1.00;;
26936;SDS011;14495;48.116;11.676;2022-09-30T14:10:37;1.50;;;1.00;;
26936;SDS011;14495;48.116;11.676;2022-09-30T14:13:35;1.38;;;0.98;;
26936;SDS011;14495;48.116;11.676;2022-09-30T14:19:42;1.42;;;0.90;;
26936;SDS011;14495;48.116;11.676;2022-09-30T14:22:17;1.45;;;0.80;;
26936;SDS011;14495;48.116;11.676;2022-09-30T14:24:43;1.65;;;0.90;;
26936;SDS011;14495;48.116;11.676;2022-09-30T14:30:12;1.48;;;0.82;;
26936;SDS011;14495;48.116;11.676;2022-09-30T14:35:31;1.27;;;0.80;;
26936;SDS011;14495;48.116;11.676;2022-09-30T14:40:47;0.80;;;0.68;;
26936;SDS011;14495;48.116;11.676;2022-09-30T14:43:15;0.88;;;0.80;;
26936;SDS011;14495;48.116;11.676;2022-09-30T14:45:44;0.98;;;0.80;;
26936;SDS011;14495;48.116;11.676;2022-09-30T14:50:55;1.02;;;0.93;;
26936;SDS011;14495;48.116;11.676;2022-09-30T14:53:32;1.40;;;1.02;;
26936;SDS011;14495;48.116;11.676;2022-09-30T14:56:00;0.88;;;0.88;;
26936;SDS011;14495;48.116;11.676;2022-09-30T14:58:37;1.02;;;0.85;;
26936;SDS011;14495;48.116;11.676;2022-09-30T15:01:08;2.03;;;1.20;;
26936;SDS011;14495;48.116;11.676;2022-09-30T15:03:42;1.40;;;0.90;;
26936;SDS011;14495;48.116;11.676;2022-09-30T15:06:23;2.58;;;1.42;;
26936;SDS011;14495;48.116;11.676;2022-09-30T15:11:52;2.22;;;1.10;;
26936;SDS011;14495;48.116;11.676;2022-09-30T15:14:19;1.95;;;1.10;;
26936;SDS011;14495;48.116;11.676;2022-09-30T15:16:50;1.75;;;1.20;;
26936;SDS011;14495;48.116;11.676;2022-09-30T15:19:25;1.25;;;0.90;;
26936;SDS011;14495;48.116;11.676;2022-09-30T15:21:54;2.35;;;1.20;;
26936;SDS011;14495;48.116;11.676;2022-09-30T15:24:22;0.80;;;0.80;;
26936;SDS011;14495;48.116;11.676;2022-09-30T15:26:50;1.60;;;1.10;;
26936;SDS011;14495;48.116;11.676;2022-09-30T15:29:17;1.10;;;1.00;;
26936;SDS011;14495;48.116;11.676;2022-09-30T15:31:44;1.30;;;0.88;;
26936;SDS011;14495;48.116;11.676;2022-09-30T15:34:15;1.48;;;1.00;;
26936;SDS011;14495;48.116;11.676;2022-09-30T15:36:45;3.00;;;0.80;;
26936;SDS011;14495;48.116;11.676;2022-09-30T15:42:26;1.95;;;1.42;;
26936;SDS011;14495;48.116;11.676;2022-09-30T15:45:04;2.60;;;1.33;;
26936;SDS011;14495;48.116;11.676;2022-09-30T15:47:57;1.55;;;1.15;;
26936;SDS011;14495;48.116;11.676;2022-09-30T15:50:42;1.50;;;1.08;;
26936;SDS011;14495;48.116;11.676;2022-09-30T15:55:41;1.98;;;1.20;;
26936;SDS011;14495;48.116;11.676;2022-09-30T16:04:08;1.85;;;1.25;;
26936;SDS011;14495;48.116;11.676;2022-09-30T16:06:54;2.17;;;1.20;;
26936;SDS011;14495;48.116;11.676;2022-09-30T16:09:28;2.17;;;1.25;;
26936;SDS011;14495;48.116;11.676;2022-09-30T16:14:52;2.42;;;1.20;;
26936;SDS011;14495;48.116;11.676;2022-09-30T16:17:28;1.65;;;1.08;;
26936;SDS011;14495;48.116;11.676;2022-09-30T16:20:00;1.00;;;0.90;;
26936;SDS011;14495;48.116;11.676;2022-09-30T16:27:43;1.83;;;1.55;;
26936;SDS011;14495;48.116;11.676;2022-09-30T16:30:12;3.47;;;1.65;;
26936;SDS011;14495;48.116;11.676;2022-09-30T16:32:39;3.03;;;1.63;;
26936;SDS011;14495;48.116;11.676;2022-09-30T16:35:13;2.78;;;2.05;;
26936;SDS011;14495;48.116;11.676;2022-09-30T16:37:41;2.90;;;1.77;;
26936;SDS011;14495;48.116;11.676;2022-09-30T16:40:14;3.25;;;1.92;;
26936;SDS011;14495;48.116;11.676;2022-09-30T16:42:44;3.20;;;2.38;;
26936;SDS011;14495;48.116;11.676;2022-09-30T16:45:10;4.15;;;2.40;;
26936;SDS011;14495;48.116;11.676;2022-09-30T16:47:38;3.72;;;2.20;;
26936;SDS011;14495;48.116;11.676;2022-09-30T16:50:38;2.35;;;1.40;;
26936;SDS011;14495;48.116;11.676;2022-09-30T16:53:07;2.70;;;1.52;;
26936;SDS011;14495;48.116;11.676;2022-09-30T16:55:35;4.55;;;2.33;;
26936;SDS011;14495;48.116;11.676;2022-09-30T16:58:01;5.95;;;2.80;;
26936;SDS011;14495;48.116;11.676;2022-09-30T17:00:28;7.35;;;3.65;;
26936;SDS011;14495;48.116;11.676;2022-09-30T17:02:54;10.68;;;5.15;;
26936;SDS011;14495;48.116;11.676;2022-09-30T17:05:23;9.23;;;3.33;;
26936;SDS011;14495;48.116;11.676;2022-09-30T17:07:57;9.93;;;4.00;;
26936;SDS011;14495;48.116;11.676;2022-09-30T17:10:25;9.38;;;4.05;;
26936;SDS011;14495;48.116;11.676;2022-09-30T17:12:53;10.48;;;4.05;;
26936;SDS011;14495;48.116;11.676;2022-09-30T17:15:20;8.15;;;3.70;;
26936;SDS011;14495;48.116;11.676;2022-09-30T17:17:46;7.63;;;3.78;;
26936;SDS011;14495;48.116;11.676;2022-09-30T17:20:11;6.18;;;3.63;;
26936;SDS011;14495;48.116;11.676;2022-09-30T17:22:37;12.82;;;4.65;;
26936;SDS011;14495;48.116;11.676;2022-09-30T17:25:03;11.73;;;3.83;;
26936;SDS011;14495;48.116;11.676;2022-09-30T17:27:28;9.70;;;3.90;;
26936;SDS011;14495;48.116;11.676;2022-09-30T17:29:54;10.05;;;3.80;;
26936;SDS011;14495;48.116;11.676;2022-09-30T17:32:19;6.78;;;3.50;;
26936;SDS011;14495;48.116;11.676;2022-09-30T17:34:45;6.75;;;2.95;;
26936;SDS011;14495;48.116;11.676;2022-09-30T17:37:10;5.90;;;2.83;;
26936;SDS011;14495;48.116;11.676;2022-09-30T17:39:37;4.97;;;2.97;;
26936;SDS011;14495;48.116;11.676;2022-09-30T17:42:02;6.70;;;3.10;;
26936;SDS011;14495;48.116;11.676;2022-09-30T17:44:46;6.78;;;3.55;;
26936;SDS011;14495;48.116;11.676;2022-09-30T17:47:12;6.88;;;4.28;;
26936;SDS011;14495;48.116;11.676;2022-09-30T17:49:37;5.65;;;3.42;;
26936;SDS011;14495;48.116;11.676;2022-09-30T17:52:02;11.02;;;5.32;;
26936;SDS011;14495;48.116;11.676;2022-09-30T17:54:28;10.63;;;4.78;;
26936;SDS011;14495;48.116;11.676;2022-09-30T17:56:54;10.27;;;5.38;;
26936;SDS011;14495;48.116;11.676;2022-09-30T17:59:21;14.38;;;5.95;;
26936;SDS011;14495;48.116;11.676;2022-09-30T18:01:47;13.00;;;6.32;;
26936;SDS011;14495;48.116;11.676;2022-09-30T18:04:14;12.57;;;5.60;;
26936;SDS011;14495;48.116;11.676;2022-09-30T18:06:40;8.38;;;5.13;;
26936;SDS011;14495;48.116;11.676;2022-09-30T18:09:05;11.10;;;5.88;;
26936;SDS011;14495;48.116;11.676;2022-09-30T18:11:30;14.02;;;7.10;;
26936;SDS011;14495;48.116;11.676;2022-09-30T18:13:56;12.75;;;6.25;;
26936;SDS011;14495;48.116;11.676;2022-09-30T18:16:27;6.93;;;3.88;;
26936;SDS011;14495;48.116;11.676;2022-09-30T18:18:55;9.05;;;4.78;;
26936;SDS011;14495;48.116;11.676;2022-09-30T18:21:22;8.90;;;3.92;;
26936;SDS011;14495;48.116;11.676;2022-09-30T18:23:49;4.45;;;2.75;;
26936;SDS011;14495;48.116;11.676;2022-09-30T18:26:15;5.13;;;2.80;;
26936;SDS011;14495;48.116;11.676;2022-09-30T18:28:41;4.57;;;2.67;;